Terminal Aerodrome Forecast
Issued by NWS Charleston, WV

Current Version | Previous Version | Text Only | Print | Product List | Glossary Off
Versions: 1 2 3 4 5 6 7 8 9 10 11 12 13 14 15 16 17 18 19 20 21 22 23 24

000
FTUS41 KRLX 251400 AAA
TAFEKN
TAF AMD
KEKN 251445Z 2515/2612 12003KT P6SM SKC
     FM251600 14005KT P6SM SCT040
     FM252200 12003KT P6SM SKC
     FM260600 00000KT 2SM BR SCT001
     FM260800 00000KT 1/4SM FG BKN001=

USA.gov is the U.S. government's official web portal to all federal, state and local government web resources and services.